Time;durP1;ratioP1;P1;durP2;ratioP2;P2;SDS_P1;SDS_P2;PMS_P1;PMS_P2;Temp;Humidity;BMP_temperature;BMP_pressure;BME280_temperature;BME280_humidity;BME280_pressure;Samples;Min_cycle;Max_cycle;Signal;HPM_P1;HPM_P2
2021/06/16 00:01:07;;;;;;;4.65;1.90;;;;;;;17.22;92.51;97053.22;5032277;28;20033;-78
2021/06/16 00:03:33;;;;;;;2.97;1.75;;;;;;;17.19;93.79;97053.53;5031119;28;20021;-78
2021/06/16 00:05:58;;;;;;;7.35;3.20;;;;;;;17.06;97.76;97053.00;5031118;28;20048;-78
2021/06/16 00:08:24;;;;;;;5.90;3.10;;;;;;;17.01;99.05;97052.59;5047377;28;20033;-78
2021/06/16 00:10:50;;;;;;;7.20;3.40;;;;;;;17.18;99.19;97087.81;5032285;28;20096;-78
2021/06/16 00:13:17;;;;;;;8.18;3.70;;;;;;;17.06;99.63;97077.31;5031962;28;20468;-78
2021/06/16 00:15:43;;;;;;;7.38;3.53;;;;;;;17.06;99.96;97080.88;5047669;28;20100;-78
2021/06/16 00:18:10;;;;;;;11.18;3.60;;;;;;;16.97;100.00;97062.00;5047650;28;20025;-78
2021/06/16 00:20:37;;;;;;;7.00;3.38;;;;;;;17.10;100.00;97071.47;5030748;28;20029;-78
2021/06/16 00:23:03;;;;;;;4.70;3.50;;;;;;;17.07;100.00;97070.94;5030912;28;20026;-78
2021/06/16 00:25:28;;;;;;;8.68;3.60;;;;;;;16.94;100.00;97044.22;5031877;28;20029;-78
2021/06/16 00:27:54;;;;;;;5.93;3.50;;;;;;;16.91;100.00;97035.56;5030532;28;20025;-78
2021/06/16 00:30:23;;;;;;;5.45;3.67;;;;;;;17.01;100.00;97069.63;5031786;28;20036;-78
2021/06/16 00:32:48;;;;;;;8.30;3.75;;;;;;;17.06;100.00;97061.09;5047344;28;20170;-78
2021/06/16 00:35:20;;;;;;;5.38;3.42;;;;;;;17.00;100.00;97056.28;5030470;28;20040;-78
2021/06/16 00:37:47;;;;;;;5.53;3.17;;;;;;;16.96;100.00;97044.06;5030513;28;20033;-78
2021/06/16 00:40:14;;;;;;;7.20;3.70;;;;;;;17.02;100.00;97040.78;5031390;28;20052;-78
2021/06/16 00:42:40;;;;;;;4.40;3.17;;;;;;;17.06;100.00;97044.88;5030462;28;20033;-78
2021/06/16 00:45:08;;;;;;;12.02;3.45;;;;;;;17.15;100.00;97065.63;5030307;28;20083;-78
2021/06/16 00:47:34;;;;;;;4.28;3.10;;;;;;;17.04;100.00;97057.72;5030244;28;20045;-78
2021/06/16 00:50:00;;;;;;;5.15;3.05;;;;;;;17.17;100.00;97069.03;5046905;28;20400;-78
2021/06/16 00:52:26;;;;;;;6.18;3.58;;;;;;;17.03;100.00;97040.63;5029954;28;20033;-79
2021/06/16 00:54:51;;;;;;;7.60;3.20;;;;;;;17.07;100.00;97043.91;5030657;28;20477;-78
2021/06/16 00:57:18;;;;;;;6.05;3.38;;;;;;;17.09;99.08;97031.94;5031399;28;20029;-78
2021/06/16 00:59:57;;;;;;;5.45;2.70;;;;;;;17.23;96.29;97034.16;5046850;28;20033;-78
2021/06/16 01:02:23;;;;;;;5.60;3.25;;;;;;;17.19;97.61;97029.19;5046421;28;20036;-78
2021/06/16 01:04:52;;;;;;;10.50;3.15;;;;;;;17.33;98.63;97043.06;5046700;28;20033;-78
2021/06/16 01:07:18;;;;;;;6.47;2.85;;;;;;;17.18;98.09;97024.78;5046556;28;20064;-78
2021/06/16 01:09:52;;;;;;;3.80;2.83;;;;;;;17.33;96.98;97050.34;5046796;28;20083;-78
2021/06/16 01:12:42;;;;;;;5.75;2.90;;;;;;;17.35;98.21;97049.19;5029867;28;20029;-78
2021/06/16 01:15:09;;;;;;;4.03;2.65;;;;;;;17.27;96.93;97034.72;5029964;28;20029;-78
2021/06/16 01:17:44;;;;;;;5.25;2.30;;;;;;;17.33;94.51;97028.69;5029844;28;20033;-78
2021/06/16 01:20:20;;;;;;;3.17;2.50;;;;;;;17.47;96.06;97046.28;5046572;28;20025;-78
2021/06/16 01:22:58;;;;;;;2.60;2.40;;;;;;;17.50;96.85;97052.25;5046704;28;20029;-78
2021/06/16 01:25:49;;;;;;;5.10;2.58;;;;;;;17.47;96.96;97052.56;5030998;28;20087;-78
2021/06/16 01:28:17;;;;;;;4.50;2.50;;;;;;;17.31;95.89;97026.16;5031187;28;20500;-77
2021/06/16 01:30:43;;;;;;;5.35;2.60;;;;;;;17.50;96.01;97046.84;5046355;28;20024;-78
2021/06/16 01:33:11;;;;;;;3.70;2.00;;;;;;;17.52;95.29;97044.84;5046364;28;20377;-78
2021/06/16 01:35:38;;;;;;;4.68;2.08;;;;;;;17.53;96.23;97041.16;5046155;28;20067;-78
2021/06/16 01:38:05;;;;;;;2.22;2.00;;;;;;;17.39;95.57;97011.88;5029661;28;20029;-78
2021/06/16 01:40:31;;;;;;;2.88;2.20;;;;;;;17.50;95.46;97024.38;5046050;28;20045;-78
2021/06/16 01:42:58;;;;;;;6.53;2.20;;;;;;;17.63;93.37;97036.53;5046279;28;20025;-78
2021/06/16 01:45:24;;;;;;;3.65;2.00;;;;;;;17.66;93.88;97038.09;5029459;28;20106;-78
2021/06/16 01:47:51;;;;;;;2.72;2.13;;;;;;;17.56;95.14;97021.94;5029591;28;20024;-78
2021/06/16 01:50:20;;;;;;;2.03;1.83;;;;;;;17.61;93.67;97022.34;5046286;28;20036;-78
2021/06/16 01:52:48;;;;;;;3.65;2.03;;;;;;;17.63;93.88;97024.88;5046021;28;20083;-78
2021/06/16 01:55:14;;;;;;;3.60;1.85;;;;;;;17.66;94.82;97024.56;5046293;28;20029;-78
2021/06/16 01:57:40;;;;;;;9.38;2.17;;;;;;;17.76;97.23;97042.47;5029405;28;20033;-78
2021/06/16 02:00:07;;;;;;;5.43;2.75;;;;;;;17.67;96.10;97034.41;5029468;28;20510;-78
2021/06/16 02:02:33;;;;;;;8.80;2.30;;;;;;;17.60;95.51;97023.31;5029134;28;20037;-78
2021/06/16 02:04:59;;;;;;;7.43;2.17;;;;;;;17.66;94.64;97036.25;5046252;28;20511;-78
2021/06/16 02:07:27;;;;;;;9.02;2.22;;;;;;;17.71;95.90;97050.19;5048801;28;20452;-78
2021/06/16 02:09:54;;;;;;;4.60;2.47;;;;;;;17.65;97.32;97036.41;5049713;28;20120;-78
2021/06/16 02:12:20;;;;;;;7.30;2.40;;;;;;;17.67;98.08;97043.38;5049861;28;20029;-78
2021/06/16 02:14:53;;;;;;;8.43;2.90;;;;;;;17.70;98.34;97047.63;5033039;28;20033;-78
2021/06/16 02:17:20;;;;;;;7.10;2.00;;;;;;;17.62;97.70;97040.28;5033364;28;20033;-78
2021/06/16 02:19:46;;;;;;;6.00;2.25;;;;;;;17.74;98.40;97049.88;5032562;28;20030;-78
2021/06/16 02:22:13;;;;;;;6.00;2.90;;;;;;;17.73;99.15;97050.03;5034237;28;20033;-78
2021/06/16 02:24:39;;;;;;;6.07;3.17;;;;;;;17.51;100.00;97032.31;5049547;28;20546;-78
2021/06/16 02:27:06;;;;;;;3.60;2.42;;;;;;;17.64;99.55;97053.63;5032848;28;20116;-79
2021/06/16 02:29:32;;;;;;;5.43;2.70;;;;;;;17.45;99.72;97019.38;5049383;28;20116;-78
2021/06/16 02:31:59;;;;;;;7.43;2.80;;;;;;;17.65;100.00;97049.94;5032861;28;20477;-80
2021/06/16 02:34:25;;;;;;;7.72;3.50;;;;;;;17.65;100.00;97048.09;5049396;28;20106;-78
2021/06/16 02:36:53;;;;;;;7.05;3.42;;;;;;;17.63;100.00;97047.38;5033861;28;20040;-78
2021/06/16 02:39:42;;;;;;;5.43;3.03;;;;;;;17.60;100.00;97042.25;5032755;28;20479;-78
2021/06/16 02:42:09;;;;;;;16.13;3.17;;;;;;;17.49;100.00;97028.91;5033317;28;20107;-78
2021/06/16 02:44:36;;;;;;;5.35;2.70;;;;;;;17.63;100.00;97052.78;5049176;28;20030;-78
2021/06/16 02:47:04;;;;;;;3.85;2.53;;;;;;;17.44;98.41;97015.00;5049470;28;20026;-78
2021/06/16 02:49:33;;;;;;;4.78;2.30;;;;;;;17.59;95.77;97040.56;5049318;28;20029;-78
2021/06/16 02:52:00;;;;;;;3.78;2.67;;;;;;;17.66;97.07;97049.78;5041101;28;20018;-77
2021/06/16 02:54:26;;;;;;;4.07;2.33;;;;;;;17.70;95.01;97059.28;5049085;28;20061;-79
2021/06/16 02:56:53;;;;;;;8.40;2.13;;;;;;;17.59;94.75;97042.41;5048865;28;20408;-78
2021/06/16 02:59:18;;;;;;;3.85;2.50;;;;;;;17.68;95.16;97053.19;5049086;28;20508;-78
2021/06/16 03:01:45;;;;;;;4.80;2.50;;;;;;;17.65;96.57;97042.69;5033174;28;20045;-78
2021/06/16 03:04:12;;;;;;;2.88;2.38;;;;;;;17.71;96.84;97055.59;5048886;28;20033;-78
2021/06/16 03:06:38;;;;;;;4.63;2.40;;;;;;;17.77;98.48;97055.00;5031877;28;20116;-78
2021/06/16 03:09:04;;;;;;;6.60;2.40;;;;;;;17.83;98.09;97065.22;5048802;28;20087;-78
2021/06/16 03:11:32;;;;;;;3.38;2.35;;;;;;;17.75;95.42;97056.13;5048669;28;20030;-78
2021/06/16 03:13:58;;;;;;;10.68;3.00;;;;;;;17.72;93.93;97051.88;5048456;28;20030;-78
2021/06/16 03:16:24;;;;;;;3.42;2.30;;;;;;;17.89;94.94;97077.28;5048545;28;20025;-79
2021/06/16 03:18:50;;;;;;;7.28;2.30;;;;;;;17.90;94.47;97075.44;5030861;28;20382;-78
2021/06/16 03:21:17;;;;;;;4.32;2.97;;;;;;;17.93;96.17;97075.97;5048435;28;20028;-79
2021/06/16 03:23:45;;;;;;;7.38;2.85;;;;;;;17.99;97.00;97079.94;5048338;28;20108;-79
2021/06/16 03:26:11;;;;;;;4.90;2.70;;;;;;;18.00;95.64;97074.34;5031892;28;20083;-79
2021/06/16 03:28:39;;;;;;;9.95;2.88;;;;;;;18.03;97.00;97081.31;5031585;28;20021;-79
2021/06/16 03:31:05;;;;;;;5.38;2.17;;;;;;;18.04;93.81;97077.59;5032920;28;20044;-79
2021/06/16 03:33:31;;;;;;;4.85;2.70;;;;;;;18.04;92.05;97059.50;5031584;28;20033;-80
2021/06/16 03:35:57;;;;;;;3.72;2.17;;;;;;;18.19;92.52;97081.47;5047998;28;20139;-79
2021/06/16 03:38:23;;;;;;;4.07;2.30;;;;;;;17.98;91.43;97041.19;5047988;28;20033;-79
2021/06/16 03:40:49;;;;;;;5.90;2.45;;;;;;;18.17;91.49;97084.34;5031095;28;20036;-79
2021/06/16 03:43:16;;;;;;;13.13;3.42;;;;;;;18.14;92.75;97083.81;5047832;28;20028;-79
2021/06/16 03:45:43;;;;;;;2.63;2.25;;;;;;;18.12;92.39;97075.00;5047940;28;20021;-79
2021/06/16 03:48:09;;;;;;;4.40;2.40;;;;;;;18.15;92.15;97080.94;5031458;28;20094;-81
2021/06/16 03:50:37;;;;;;;158.95;84.07;;;;;;;18.16;93.86;97076.38;5029887;28;20033;-76
2021/06/16 03:53:03;;;;;;;9.10;3.97;;;;;;;18.13;94.69;97082.94;5061953;28;20454;-80
2021/06/16 03:55:29;;;;;;;7.88;2.88;;;;;;;18.21;94.41;97093.84;5028414;28;20025;-79
2021/06/16 03:57:55;;;;;;;25.10;13.95;;;;;;;18.19;94.01;97092.31;5028249;28;20029;-79
2021/06/16 04:00:21;;;;;;;10.43;3.65;;;;;;;18.04;94.35;97058.66;5045037;28;20071;-79
2021/06/16 04:02:48;;;;;;;8.45;3.15;;;;;;;18.22;95.16;97094.72;5027953;28;20026;-79
2021/06/16 04:05:15;;;;;;;17.15;11.38;;;;;;;18.22;95.83;97095.56;5045083;28;20357;-79
2021/06/16 04:07:40;;;;;;;14.77;7.65;;;;;;;18.14;97.33;97072.97;5029388;28;20404;-79
2021/06/16 04:10:07;;;;;;;4.82;3.25;;;;;;;18.19;96.33;97078.78;5046510;28;20119;-79
2021/06/16 04:12:32;;;;;;;20.95;13.77;;;;;;;18.22;96.54;97081.19;5047133;28;20025;-79
2021/06/16 04:14:58;;;;;;;20.83;12.65;;;;;;;18.21;94.04;97069.50;5047687;28;20388;-79
2021/06/16 04:17:24;;;;;;;6.20;2.80;;;;;;;18.12;93.54;97051.47;5031740;28;20040;-79
2021/06/16 04:19:50;;;;;;;7.45;4.03;;;;;;;18.38;93.97;97097.59;5047257;28;20029;-78
2021/06/16 04:22:17;;;;;;;32.45;6.38;;;;;;;18.47;94.33;97093.97;5046785;28;20029;-78
2021/06/16 04:24:42;;;;;;;11.38;3.72;;;;;;;18.47;92.66;97085.84;5047113;28;20028;-78
2021/06/16 04:27:09;;;;;;;7.80;3.17;;;;;;;18.57;93.15;97096.63;5030424;28;20037;-79
2021/06/16 04:29:34;;;;;;;4.60;2.40;;;;;;;18.61;90.32;97088.00;5046951;28;20452;-78
2021/06/16 04:32:00;;;;;;;6.65;3.97;;;;;;;18.62;92.80;97105.97;5047220;28;20029;-79
2021/06/16 04:34:26;;;;;;;10.52;3.30;;;;;;;18.52;91.65;97091.66;5046824;28;20087;-79
2021/06/16 04:36:51;;;;;;;6.85;3.55;;;;;;;18.66;92.85;97101.09;5046980;28;20108;-79
2021/06/16 04:39:18;;;;;;;22.30;7.13;;;;;;;18.63;92.29;97104.13;5046604;28;20045;-79
2021/06/16 04:41:44;;;;;;;17.70;6.85;;;;;;;18.73;94.94;97122.03;5030136;28;20033;-79
2021/06/16 04:44:10;;;;;;;25.45;5.53;;;;;;;18.65;97.44;97111.09;5047128;28;20503;-79
2021/06/16 04:46:35;;;;;;;16.58;7.82;;;;;;;18.60;97.03;97105.28;5030394;28;20029;-79
2021/06/16 04:49:03;;;;;;;14.68;4.55;;;;;;;18.64;96.09;97103.97;5030140;28;20034;-78
2021/06/16 04:51:28;;;;;;;21.65;6.90;;;;;;;18.70;95.19;97111.47;5029453;28;20095;-77
2021/06/16 04:53:54;;;;;;;59.35;31.85;;;;;;;18.75;96.26;97125.41;5046406;28;20118;-80
2021/06/16 04:56:20;;;;;;;21.25;5.95;;;;;;;18.72;96.80;97123.00;5045662;28;20044;-78
2021/06/16 04:58:45;;;;;;;47.17;21.52;;;;;;;18.62;96.99;97108.69;5046712;28;20033;-78
2021/06/16 05:01:11;;;;;;;25.08;9.60;;;;;;;18.69;98.51;97128.75;5030382;28;20416;-78
2021/06/16 05:03:37;;;;;;;22.42;5.82;;;;;;;18.68;98.35;97140.56;5029124;28;20026;-77
2021/06/16 05:06:04;;;;;;;18.10;5.53;;;;;;;18.47;98.24;97112.06;5028862;28;20079;-77
2021/06/16 05:08:29;;;;;;;19.55;5.00;;;;;;;18.58;99.69;97134.38;5045442;28;20033;-78
2021/06/16 05:10:55;;;;;;;16.95;5.22;;;;;;;18.53;99.45;97136.72;5030796;28;20028;-78
2021/06/16 05:13:24;;;;;;;17.25;5.63;;;;;;;18.66;99.87;97158.00;5046005;28;20047;-78
2021/06/16 05:15:54;;;;;;;31.40;5.63;;;;;;;18.61;99.24;97144.09;5029466;28;20036;-78
2021/06/16 05:18:20;;;;;;;16.35;5.15;;;;;;;18.69;100.00;97155.84;5046083;28;20034;-78
2021/06/16 05:20:47;;;;;;;11.48;6.35;;;;;;;18.52;98.50;97137.72;5045929;28;20037;-78
2021/06/16 05:23:12;;;;;;;23.65;9.48;;;;;;;18.61;98.61;97144.09;5029417;28;20040;-78
2021/06/16 05:25:41;;;;;;;16.38;4.57;;;;;;;18.71;97.34;97174.63;5029209;28;20476;-78
2021/06/16 05:28:08;;;;;;;14.73;5.32;;;;;;;18.63;98.30;97172.72;5030926;28;20493;-78
2021/06/16 05:30:33;;;;;;;14.75;5.05;;;;;;;18.66;100.00;97177.81;5046266;28;20094;-79
2021/06/16 05:32:59;;;;;;;21.35;5.65;;;;;;;18.38;100.00;97160.75;5046713;28;20469;-78
2021/06/16 05:35:24;;;;;;;33.67;17.75;;;;;;;18.36;100.00;97175.44;5030656;28;20578;-78
2021/06/16 05:37:50;;;;;;;12.65;5.60;;;;;;;18.39;100.00;97180.56;5046367;28;20032;-78
2021/06/16 05:40:16;;;;;;;11.93;5.10;;;;;;;18.33;100.00;97170.34;5046045;28;20215;-78
2021/06/16 05:42:42;;;;;;;17.45;4.88;;;;;;;18.34;100.00;97177.44;5034059;28;20079;-78
2021/06/16 05:45:08;;;;;;;9.68;4.47;;;;;;;18.42;100.00;97180.25;5033635;28;20025;-78
2021/06/16 05:47:34;;;;;;;7.38;5.15;;;;;;;18.38;100.00;97176.13;5050020;28;20021;-78
2021/06/16 05:50:00;;;;;;;21.75;10.45;;;;;;;18.49;100.00;97185.91;5050433;28;20112;-78
2021/06/16 05:52:27;;;;;;;19.75;11.45;;;;;;;18.52;100.00;97181.03;5049901;28;20468;-78
2021/06/16 05:54:53;;;;;;;7.60;5.35;;;;;;;18.68;100.00;97169.53;5034531;28;20021;-78
2021/06/16 05:57:19;;;;;;;8.95;5.40;;;;;;;18.87;100.00;97191.06;5050175;28;20079;-78
2021/06/16 05:59:45;;;;;;;11.95;5.95;;;;;;;18.85;100.00;97193.09;5033339;28;20080;-78
2021/06/16 06:02:10;;;;;;;15.80;7.53;;;;;;;19.02;100.00;97204.91;5033462;28;20451;-78
2021/06/16 06:04:36;;;;;;;10.35;5.50;;;;;;;19.00;100.00;97199.66;5033275;28;20091;-77
2021/06/16 06:07:03;;;;;;;13.70;5.90;;;;;;;18.97;100.00;97185.56;5033159;28;20030;-78
2021/06/16 06:09:30;;;;;;;9.88;6.18;;;;;;;19.05;100.00;97200.03;5049481;28;20040;-80
2021/06/16 06:11:55;;;;;;;12.63;6.50;;;;;;;19.07;100.00;97202.63;5033051;28;20026;-79
2021/06/16 06:14:21;;;;;;;14.82;5.90;;;;;;;19.17;100.00;97222.34;5034363;28;20412;-78
2021/06/16 06:16:47;;;;;;;9.60;5.95;;;;;;;19.17;100.00;97217.78;5032845;28;20029;-78
2021/06/16 06:19:16;;;;;;;10.55;6.13;;;;;;;19.18;100.00;97205.94;5034389;28;20039;-78
2021/06/16 06:21:41;;;;;;;15.10;6.55;;;;;;;19.36;100.00;97224.88;5049263;28;20045;-78
2021/06/16 06:24:07;;;;;;;10.63;6.38;;;;;;;19.33;100.00;97219.78;5033008;28;20029;-78
2021/06/16 06:26:34;;;;;;;8.13;4.30;;;;;;;19.43;100.00;97239.56;5049398;28;20036;-79
2021/06/16 06:29:00;;;;;;;6.25;5.03;;;;;;;19.46;100.00;97233.81;5049288;28;20449;-78
2021/06/16 06:31:26;;;;;;;7.32;4.10;;;;;;;19.46;100.00;97241.97;5032870;28;20160;-78
2021/06/16 06:33:51;;;;;;;21.40;4.90;;;;;;;19.41;100.00;97228.84;5032568;28;20450;-79
2021/06/16 06:36:19;;;;;;;12.32;5.07;;;;;;;19.56;100.00;97248.16;5032553;28;20108;-78
2021/06/16 06:38:45;;;;;;;9.18;3.92;;;;;;;19.54;99.63;97224.88;5048899;28;20052;-78
2021/06/16 06:41:12;;;;;;;10.63;4.28;;;;;;;19.71;98.79;97243.84;5049146;28;20067;-78
2021/06/16 06:43:38;;;;;;;6.43;4.40;;;;;;;19.79;98.03;97227.59;5034596;28;20029;-79
2021/06/16 06:46:04;;;;;;;6.68;4.60;;;;;;;19.79;98.88;97210.47;5049969;28;20029;-78
2021/06/16 06:48:29;;;;;;;15.45;5.10;;;;;;;20.12;97.68;97241.41;5049872;28;20414;-79
2021/06/16 06:50:55;;;;;;;8.38;4.97;;;;;;;20.15;97.33;97222.06;5033703;28;20020;-79
2021/06/16 06:53:22;;;;;;;8.35;4.75;;;;;;;20.18;96.50;97233.41;5048217;28;20029;-78
2021/06/16 06:55:47;;;;;;;6.68;4.60;;;;;;;20.17;91.83;97242.59;5049082;28;20033;-78
2021/06/16 06:58:13;;;;;;;11.93;5.00;;;;;;;20.27;91.49;97240.63;5032830;28;20456;-80
2021/06/16 07:00:39;;;;;;;9.05;5.75;;;;;;;20.45;90.12;97240.56;5049002;28;20040;-78
2021/06/16 07:03:04;;;;;;;8.05;5.10;;;;;;;20.59;88.61;97230.91;5048741;28;20033;-77
2021/06/16 07:05:30;;;;;;;6.57;4.07;;;;;;;20.83;86.49;97237.28;5048617;28;20033;-79
2021/06/16 07:07:56;;;;;;;4.45;3.78;;;;;;;20.99;83.96;97211.97;5048738;28;20030;-78
2021/06/16 07:10:21;;;;;;;8.88;2.92;;;;;;;21.39;80.84;97235.69;5048536;28;20026;-80
2021/06/16 07:12:47;;;;;;;3.28;2.70;;;;;;;21.45;77.81;97229.56;5033205;28;20447;-78
2021/06/16 07:15:13;;;;;;;7.22;2.72;;;;;;;21.63;77.49;97239.25;5031784;28;20030;-78
2021/06/16 07:17:38;;;;;;;6.20;3.10;;;;;;;21.69;78.95;97232.25;5031947;28;20416;-78
2021/06/16 07:20:05;;;;;;;9.15;2.88;;;;;;;21.86;77.36;97231.25;5031755;28;20029;-79
2021/06/16 07:22:31;;;;;;;3.83;3.20;;;;;;;22.00;74.79;97225.09;5048377;28;20568;-78
2021/06/16 07:24:57;;;;;;;10.40;2.90;;;;;;;22.09;73.47;97242.28;5048097;28;20169;-79
2021/06/16 07:27:22;;;;;;;2.92;2.60;;;;;;;22.08;71.85;97238.72;5031754;28;20053;-79
2021/06/16 07:29:48;;;;;;;7.10;5.65;;;;;;;22.49;72.29;97242.13;5048066;28;20386;-79
2021/06/16 07:32:16;;;;;;;5.28;2.75;;;;;;;22.86;68.70;97238.75;5048286;28;20112;-79
2021/06/16 07:34:42;;;;;;;3.40;2.38;;;;;;;23.27;66.86;97241.22;5047646;28;20033;-79
2021/06/16 07:37:07;;;;;;;7.28;2.90;;;;;;;23.26;68.48;97231.38;5048321;28;20090;-79
2021/06/16 07:39:33;;;;;;;8.13;3.20;;;;;;;23.48;65.93;97233.25;5047951;28;20049;-79
2021/06/16 07:41:58;;;;;;;4.75;2.80;;;;;;;23.97;64.10;97250.91;5047780;28;20045;-79
2021/06/16 07:44:24;;;;;;;6.75;2.72;;;;;;;24.61;62.60;97254.84;5048231;28;20025;-79
2021/06/16 07:46:49;;;;;;;4.45;2.20;;;;;;;25.71;58.37;97250.06;5047944;28;20029;-78
2021/06/16 07:49:15;;;;;;;5.68;2.40;;;;;;;26.95;53.33;97269.31;5047840;28;20033;-79
2021/06/16 07:51:41;;;;;;;4.75;2.47;;;;;;;27.71;50.97;97259.03;5032490;28;20032;-79
2021/06/16 07:54:11;;;;;;;2.55;2.35;;;;;;;27.82;49.40;97274.91;5047875;28;20041;-79
2021/06/16 07:56:40;;;;;;;49.67;21.63;;;;;;;27.71;48.89;97270.03;5032518;28;20032;-79
2021/06/16 07:59:07;;;;;;;8.27;2.60;;;;;;;27.57;48.75;97274.66;5032444;28;20024;-79
2021/06/16 08:01:33;;;;;;;9.43;2.83;;;;;;;27.70;49.33;97274.69;5047810;28;20034;-79
2021/06/16 08:03:59;;;;;;;5.50;2.92;;;;;;;27.27;51.01;97263.13;5031554;28;20032;-79
2021/06/16 08:06:25;;;;;;;3.15;2.33;;;;;;;27.59;48.85;97271.69;5032337;28;20025;-79
2021/06/16 08:08:50;;;;;;;6.82;2.60;;;;;;;27.68;47.62;97245.72;5030836;28;20029;-79
2021/06/16 08:11:16;;;;;;;5.03;2.65;;;;;;;27.89;48.33;97268.38;5030878;28;20021;-79
2021/06/16 08:13:41;;;;;;;5.63;2.30;;;;;;;28.85;45.73;97269.59;5047750;28;20460;-79
2021/06/16 08:16:07;;;;;;;3.22;2.50;;;;;;;31.04;41.92;97274.25;5047299;28;20492;-79
2021/06/16 08:18:33;;;;;;;6.13;2.35;;;;;;;33.27;36.69;97295.63;5047337;28;20562;-79
2021/06/16 08:20:59;;;;;;;6.18;2.25;;;;;;;33.69;34.94;97299.88;5047172;28;20034;-80
2021/06/16 08:23:25;;;;;;;2.72;2.47;;;;;;;33.92;35.03;97293.38;5047347;28;20079;-80
2021/06/16 08:25:50;;;;;;;3.08;2.20;;;;;;;32.90;36.26;97295.06;5047088;28;20029;-79
2021/06/16 08:28:16;;;;;;;2.75;2.40;;;;;;;30.10;40.21;97304.81;5030577;28;20505;-79
2021/06/16 08:30:41;;;;;;;5.13;2.35;;;;;;;28.86;42.98;97281.44;5030663;28;20451;-79
2021/06/16 08:33:07;;;;;;;4.93;2.42;;;;;;;28.59;44.15;97279.78;5046894;28;20489;-79
2021/06/16 08:35:33;;;;;;;6.05;2.53;;;;;;;27.95;45.55;97291.41;5030414;28;20056;-79
2021/06/16 08:37:58;;;;;;;5.07;2.60;;;;;;;26.61;48.46;97288.56;5046828;28;20029;-78
2021/06/16 08:40:24;;;;;;;4.70;2.42;;;;;;;26.48;50.06;97292.06;5031523;28;20128;-78
2021/06/16 08:42:50;;;;;;;4.22;2.63;;;;;;;26.12;51.15;97289.41;5029963;28;20048;-79
2021/06/16 08:45:18;;;;;;;4.25;2.70;;;;;;;25.51;52.49;97281.88;5030183;28;20029;-78
2021/06/16 08:47:48;;;;;;;5.78;2.58;;;;;;;25.21;55.21;97294.81;5046769;28;20410;-78
2021/06/16 08:50:15;;;;;;;7.53;2.75;;;;;;;25.51;55.86;97292.84;5038648;28;20039;-79
2021/06/16 08:52:41;;;;;;;6.35;2.63;;;;;;;25.97;53.49;97302.38;5046727;28;20083;-79
2021/06/16 08:55:09;;;;;;;4.60;2.80;;;;;;;26.13;52.92;97284.78;5029984;28;20037;-79
2021/06/16 08:57:35;;;;;;;6.00;3.30;;;;;;;26.04;52.91;97284.09;5046716;28;20029;-79
2021/06/16 09:00:00;;;;;;;2.60;2.40;;;;;;;26.36;50.29;97285.44;5046481;28;20091;-78
2021/06/16 09:02:26;;;;;;;4.22;2.95;;;;;;;25.92;53.04;97287.56;5046449;28;20036;-79
2021/06/16 09:04:53;;;;;;;7.10;3.05;;;;;;;25.93;52.94;97312.06;5031368;28;20075;-78
2021/06/16 09:07:24;;;;;;;2.58;2.33;;;;;;;25.71;52.71;97313.09;5029872;28;20503;-79
2021/06/16 09:10:11;;;;;;;5.60;2.92;;;;;;;25.35;54.13;97300.22;5046548;28;20030;-79
2021/06/16 09:12:45;;;;;;;7.43;2.95;;;;;;;25.33;55.20;97294.09;5046576;28;20422;-79
2021/06/16 09:15:13;;;;;;;5.10;2.90;;;;;;;25.96;54.10;97306.19;5045896;28;20116;-79
2021/06/16 09:17:39;;;;;;;5.68;3.58;;;;;;;26.36;52.19;97316.44;5046347;28;20108;-79
2021/06/16 09:20:05;;;;;;;30.75;22.90;;;;;;;26.54;52.23;97304.97;5013318;28;20603;-78
2021/06/16 09:22:37;;;;;;;8.93;3.92;;;;;;;26.78;50.82;97323.72;5046544;28;20033;-79
2021/06/16 09:25:07;;;;;;;;;;;;;;;26.89;51.25;97316.81;5046673;28;20037;-79
2021/06/16 09:27:44;;;;;;;7.90;3.00;;;;;;;27.06;50.03;97326.44;5046324;28;20066;-78
2021/06/16 09:30:19;;;;;;;6.70;3.60;;;;;;;27.19;49.49;97331.16;5046464;28;20408;-79
2021/06/16 09:32:51;;;;;;;4.82;4.00;;;;;;;27.19;48.73;97332.00;5031291;28;20029;-79
2021/06/16 09:35:41;;;;;;;6.03;2.88;;;;;;;27.12;50.23;97341.25;5029845;28;20083;-80
2021/06/16 09:38:11;;;;;;;6.60;2.88;;;;;;;27.02;50.11;97335.28;5045896;28;20033;-78
2021/06/16 09:40:41;;;;;;;3.40;2.80;;;;;;;26.79;50.38;97328.13;5029742;28;20519;-78
2021/06/16 09:43:09;;;;;;;4.72;2.70;;;;;;;26.74;50.31;97327.91;5029402;28;20033;-80
2021/06/16 09:45:35;;;;;;;6.00;3.22;;;;;;;26.98;51.26;97332.06;5046259;28;20109;-79
2021/06/16 09:48:33;;;;;;;8.00;3.17;;;;;;;27.01;51.19;97333.59;5046006;28;20448;-79
2021/06/16 09:51:17;;;;;;;5.70;2.85;;;;;;;26.86;50.65;97337.28;5029221;28;20457;-79
2021/06/16 09:54:14;;;;;;;4.68;2.80;;;;;;;26.78;51.49;97342.06;5031093;28;20033;-78
2021/06/16 09:56:53;;;;;;;3.97;2.65;;;;;;;26.36;50.99;97330.16;5045744;28;20031;-78
2021/06/16 09:59:42;;;;;;;2.63;2.42;;;;;;;26.17;51.59;97335.50;5029178;28;20033;-78
2021/06/16 10:02:23;;;;;;;3.97;2.70;;;;;;;25.84;52.32;97327.75;5029063;28;20030;-78
2021/06/16 10:04:54;;;;;;;3.10;2.60;;;;;;;25.60;53.11;97332.78;5045919;28;20041;-78
2021/06/16 10:07:30;;;;;;;9.40;3.00;;;;;;;25.97;52.90;97334.41;5046020;28;20123;-79
2021/06/16 10:09:57;;;;;;;7.70;2.80;;;;;;;26.23;52.79;97324.59;5030627;28;20025;-79
2021/06/16 10:12:32;;;;;;;7.22;3.13;;;;;;;26.75;53.58;97331.50;5030623;28;20473;-79
2021/06/16 10:14:59;;;;;;;7.40;3.47;;;;;;;27.40;52.90;97337.38;5043659;28;20532;-78
2021/06/16 10:17:25;;;;;;;3.80;2.67;;;;;;;28.02;48.00;97333.53;5026669;28;20033;-79
2021/06/16 10:19:51;;;;;;;8.07;3.05;;;;;;;28.68;46.23;97337.19;5043317;28;20036;-79
2021/06/16 10:22:23;;;;;;;5.32;3.20;;;;;;;29.09;45.12;97336.88;5026500;28;20030;-79
2021/06/16 10:24:49;;;;;;;2.65;2.42;;;;;;;28.53;44.89;97329.13;5042551;28;20477;-75
2021/06/16 10:27:39;;;;;;;3.33;2.60;;;;;;;27.77;46.29;97337.94;5026564;28;20041;-74
2021/06/16 10:30:10;;;;;;;11.48;2.80;;;;;;;27.43;48.33;97328.75;5045998;28;20424;-74
2021/06/16 10:32:42;;;;;;;4.43;3.00;;;;;;;27.28;48.67;97329.91;5046381;28;20029;-75
2021/06/16 10:35:12;;;;;;;5.30;3.00;;;;;;;26.63;49.78;97308.41;5029514;28;20048;-75
2021/06/16 10:37:42;;;;;;;8.15;2.80;;;;;;;26.34;51.43;97321.28;5045799;28;20030;-76
2021/06/16 10:40:23;;;;;;;5.72;3.08;;;;;;;25.64;54.02;97328.63;5029003;28;20104;-76
2021/06/16 10:43:02;;;;;;;5.40;2.92;;;;;;;25.15;55.47;97318.34;5045531;28;20489;-76
2021/06/16 10:45:29;;;;;;;6.18;3.10;;;;;;;24.58;57.44;97298.16;5030251;28;20033;-76
2021/06/16 10:47:56;;;;;;;5.18;3.22;;;;;;;24.22;58.74;97309.81;5030458;28;20029;-75
2021/06/16 10:50:22;;;;;;;7.18;3.10;;;;;;;23.92;60.81;97312.63;5045660;28;20029;-75
2021/06/16 10:53:05;;;;;;;6.53;3.45;;;;;;;23.62;60.68;97289.81;5045853;28;20079;-75
2021/06/16 10:55:57;;;;;;;11.55;4.15;;;;;;;23.93;61.07;97319.78;5030489;28;22678;-75
2021/06/16 10:58:27;;;;;;;14.60;4.15;;;;;;;24.22;60.58;97309.81;5045551;28;20030;-74
2021/06/16 11:01:12;;;;;;;9.30;3.53;;;;;;;24.48;59.14;97322.19;5045515;28;20028;-75
2021/06/16 11:03:50;;;;;;;8.15;3.65;;;;;;;24.55;58.25;97321.25;5030032;28;20100;-74
2021/06/16 11:09:03;;;;;;;3.22;2.92;;;;;;;25.00;57.34;97320.25;5030185;28;20033;-75
2021/06/16 11:11:49;;;;;;;8.73;3.00;;;;;;;25.61;56.19;97327.13;5045387;28;20017;-75
2021/06/16 11:14:50;;;;;;;3.75;2.78;;;;;;;26.97;50.40;97322.16;5030033;28;20025;-75
2021/06/16 11:17:34;;;;;;;10.70;3.10;;;;;;;27.08;51.16;97335.31;4988287;28;20042;-75
2021/06/16 11:20:14;;;;;;;3.60;3.10;;;;;;;26.90;51.67;97326.75;5026609;28;20041;-75
2021/06/16 11:22:45;;;;;;;6.82;3.33;;;;;;;26.70;52.15;97332.09;5030571;28;20052;-75
2021/06/16 11:25:29;;;;;;;6.30;3.47;;;;;;;26.36;54.05;97324.66;5029626;28;20502;-75
2021/06/16 11:28:07;;;;;;;4.10;3.20;;;;;;;25.59;57.40;97322.88;5026127;28;20036;-75
2021/06/16 11:30:39;;;;;;;7.75;4.13;;;;;;;24.97;60.65;97326.09;5029418;28;20029;-75
2021/06/16 11:33:17;;;;;;;8.20;3.78;;;;;;;24.36;62.32;97324.53;5029830;28;20510;-75
2021/06/16 11:35:47;;;;;;;5.95;4.00;;;;;;;23.65;67.11;97314.91;5029926;28;20107;-76
2021/06/16 11:38:22;;;;;;;4.80;3.80;;;;;;;23.43;67.91;97321.19;5029375;28;20033;-75